sensor_id;sensor_type;location;lat;lon;timestamp;pressure;altitude;pressure_sealevel;temperature;humidity
73245;BME280;61460;41.158;-73.238;2023-03-14T00:01:09;100785.84;;;23.62;39.65
73245;BME280;61460;41.158;-73.238;2023-03-14T00:03:34;100790.09;;;23.74;39.20
73245;BME280;61460;41.158;-73.238;2023-03-14T00:06:05;100790.44;;;23.82;39.05
73245;BME280;61460;41.158;-73.238;2023-03-14T00:08:34;100780.92;;;23.78;39.25
73245;BME280;61460;41.158;-73.238;2023-03-14T00:11:06;100775.32;;;23.80;39.17
73245;BME280;61460;41.158;-73.238;2023-03-14T00:13:35;100765.02;;;23.68;39.34
73245;BME280;61460;41.158;-73.238;2023-03-14T00:16:07;100751.85;;;23.40;39.23
73245;BME280;61460;41.158;-73.238;2023-03-14T00:18:36;100758.56;;;23.65;38.78
73245;BME280;61460;41.158;-73.238;2023-03-14T00:21:07;100757.55;;;23.85;38.25
73245;BME280;61460;41.158;-73.238;2023-03-14T00:23:37;100752.25;;;23.91;38.39
73245;BME280;61460;41.158;-73.238;2023-03-14T00:26:08;100755.08;;;23.92;38.34
73245;BME280;61460;41.158;-73.238;2023-03-14T00:28:37;100754.78;;;23.90;38.30
73245;BME280;61460;41.158;-73.238;2023-03-14T00:31:10;100751.76;;;23.92;38.86
73245;BME280;61460;41.158;-73.238;2023-03-14T00:33:38;100747.54;;;23.72;38.59
73245;BME280;61460;41.158;-73.238;2023-03-14T00:36:10;100739.29;;;23.59;38.18
73245;BME280;61460;41.158;-73.238;2023-03-14T00:38:40;100730.51;;;24.01;37.73
73245;BME280;61460;41.158;-73.238;2023-03-14T00:41:10;100725.30;;;24.06;37.70
73245;BME280;61460;41.158;-73.238;2023-03-14T00:43:39;100714.63;;;23.99;37.85
73245;BME280;61460;41.158;-73.238;2023-03-14T00:46:10;100708.50;;;23.60;38.17
73245;BME280;61460;41.158;-73.238;2023-03-14T00:48:40;100704.33;;;23.88;37.88
73245;BME280;61460;41.158;-73.238;2023-03-14T00:51:10;100696.75;;;24.01;37.61
73245;BME280;61460;41.158;-73.238;2023-03-14T00:53:41;100695.57;;;23.99;38.03
73245;BME280;61460;41.158;-73.238;2023-03-14T00:56:12;100685.24;;;24.18;37.69
73245;BME280;61460;41.158;-73.238;2023-03-14T00:58:42;100674.44;;;24.30;37.45
73245;BME280;61460;41.158;-73.238;2023-03-14T01:01:15;100670.28;;;24.24;37.43
73245;BME280;61460;41.158;-73.238;2023-03-14T01:03:42;100668.78;;;24.25;37.60
73245;BME280;61460;41.158;-73.238;2023-03-14T01:06:14;100658.23;;;24.24;37.56
73245;BME280;61460;41.158;-73.238;2023-03-14T01:08:44;100663.59;;;24.16;37.69
73245;BME280;61460;41.158;-73.238;2023-03-14T01:11:16;100651.87;;;23.77;37.51
73245;BME280;61460;41.158;-73.238;2023-03-14T01:13:44;100648.30;;;23.65;38.47
73245;BME280;61460;41.158;-73.238;2023-03-14T01:16:15;100644.38;;;24.06;37.29
73245;BME280;61460;41.158;-73.238;2023-03-14T01:18:45;100646.71;;;24.15;37.18
73245;BME280;61460;41.158;-73.238;2023-03-14T01:21:17;100644.92;;;24.28;37.06
73245;BME280;61460;41.158;-73.238;2023-03-14T01:23:47;100642.11;;;24.29;37.11
73245;BME280;61460;41.158;-73.238;2023-03-14T01:26:18;100630.82;;;24.25;37.31
73245;BME280;61460;41.158;-73.238;2023-03-14T01:28:48;100631.32;;;24.17;37.49
73245;BME280;61460;41.158;-73.238;2023-03-14T01:31:18;100633.33;;;24.05;37.64
73245;BME280;61460;41.158;-73.238;2023-03-14T01:33:47;100637.50;;;23.80;37.73
73245;BME280;61460;41.158;-73.238;2023-03-14T01:36:17;100634.02;;;23.93;36.97
73245;BME280;61460;41.158;-73.238;2023-03-14T01:38:48;100636.15;;;23.94;37.12
73245;BME280;61460;41.158;-73.238;2023-03-14T01:41:20;100629.01;;;23.98;37.16
73245;BME280;61460;41.158;-73.238;2023-03-14T01:43:49;100619.87;;;23.96;37.56
73245;BME280;61460;41.158;-73.238;2023-03-14T01:46:22;100616.48;;;23.94;37.70
73245;BME280;61460;41.158;-73.238;2023-03-14T01:48:54;100602.96;;;23.96;37.57
73245;BME280;61460;41.158;-73.238;2023-03-14T01:51:23;100604.37;;;23.92;37.10
73245;BME280;61460;41.158;-73.238;2023-03-14T01:53:50;100597.24;;;23.61;36.96
73245;BME280;61460;41.158;-73.238;2023-03-14T01:56:20;100591.17;;;23.63;36.94
73245;BME280;61460;41.158;-73.238;2023-03-14T01:58:51;100593.24;;;23.76;37.17
73245;BME280;61460;41.158;-73.238;2023-03-14T02:01:23;100585.65;;;23.78;37.13
73245;BME280;61460;41.158;-73.238;2023-03-14T02:03:54;100587.26;;;23.84;37.14
73245;BME280;61460;41.158;-73.238;2023-03-14T02:06:26;100579.13;;;23.84;37.08
73245;BME280;61460;41.158;-73.238;2023-03-14T02:08:54;100575.51;;;23.82;37.23
73245;BME280;61460;41.158;-73.238;2023-03-14T02:11:27;100563.46;;;23.84;37.24
73245;BME280;61460;41.158;-73.238;2023-03-14T02:13:56;100557.36;;;23.70;37.15
73245;BME280;61460;41.158;-73.238;2023-03-14T02:16:27;100552.49;;;23.61;36.71
73245;BME280;61460;41.158;-73.238;2023-03-14T02:18:56;100546.19;;;23.57;37.16
73245;BME280;61460;41.158;-73.238;2023-03-14T02:21:37;100541.46;;;23.73;37.41
73245;BME280;61460;41.158;-73.238;2023-03-14T02:24:04;100542.71;;;23.78;36.86
73245;BME280;61460;41.158;-73.238;2023-03-14T02:26:33;100540.23;;;23.76;37.52
73245;BME280;61460;41.158;-73.238;2023-03-14T02:28:59;100530.10;;;23.87;37.51
73245;BME280;61460;41.158;-73.238;2023-03-14T02:31:29;100528.38;;;23.68;38.56
73245;BME280;61460;41.158;-73.238;2023-03-14T02:34:00;100516.53;;;23.45;39.51
73245;BME280;61460;41.158;-73.238;2023-03-14T02:36:30;100507.68;;;23.40;39.67
73245;BME280;61460;41.158;-73.238;2023-03-14T02:39:06;100497.11;;;23.09;39.24
73245;BME280;61460;41.158;-73.238;2023-03-14T02:41:31;100491.06;;;23.15;39.12
73245;BME280;61460;41.158;-73.238;2023-03-14T02:44:01;100484.71;;;23.33;39.30
73245;BME280;61460;41.158;-73.238;2023-03-14T02:46:33;100485.71;;;23.31;39.89
73245;BME280;61460;41.158;-73.238;2023-03-14T02:49:05;100467.08;;;23.27;39.43
73245;BME280;61460;41.158;-73.238;2023-03-14T02:51:34;100468.14;;;23.27;39.18
73245;BME280;61460;41.158;-73.238;2023-03-14T02:54:04;100456.08;;;23.08;39.73
73245;BME280;61460;41.158;-73.238;2023-03-14T02:56:35;100446.57;;;23.10;39.85
73245;BME280;61460;41.158;-73.238;2023-03-14T02:59:06;100436.14;;;22.89;39.50
73245;BME280;61460;41.158;-73.238;2023-03-14T03:01:36;100426.36;;;22.84;39.50
73245;BME280;61460;41.158;-73.238;2023-03-14T03:04:08;100425.19;;;22.99;39.43
73245;BME280;61460;41.158;-73.238;2023-03-14T03:06:37;100419.32;;;23.02;39.37
73245;BME280;61460;41.158;-73.238;2023-03-14T03:09:08;100412.86;;;22.97;39.54
73245;BME280;61460;41.158;-73.238;2023-03-14T03:11:39;100401.16;;;22.96;39.64
73245;BME280;61460;41.158;-73.238;2023-03-14T03:14:09;100387.41;;;22.97;40.08
73245;BME280;61460;41.158;-73.238;2023-03-14T03:16:39;100378.98;;;22.95;39.68
73245;BME280;61460;41.158;-73.238;2023-03-14T03:19:10;100386.03;;;22.87;39.53
73245;BME280;61460;41.158;-73.238;2023-03-14T03:21:41;100379.10;;;22.67;39.89
73245;BME280;61460;41.158;-73.238;2023-03-14T03:24:11;100377.23;;;22.84;39.38
73245;BME280;61460;41.158;-73.238;2023-03-14T03:26:42;100376.77;;;22.83;39.42
73245;BME280;61460;41.158;-73.238;2023-03-14T03:29:13;100370.60;;;22.80;39.52
73245;BME280;61460;41.158;-73.238;2023-03-14T03:31:43;100371.67;;;22.79;39.56
73245;BME280;61460;41.158;-73.238;2023-03-14T03:34:14;100368.68;;;22.76;39.62
73245;BME280;61460;41.158;-73.238;2023-03-14T03:36:44;100350.39;;;22.81;39.54
73245;BME280;61460;41.158;-73.238;2023-03-14T03:39:15;100339.13;;;22.75;39.56
73245;BME280;61460;41.158;-73.238;2023-03-14T03:41:46;100336.62;;;22.69;39.35
73245;BME280;61460;41.158;-73.238;2023-03-14T03:44:16;100325.33;;;22.78;39.24
73245;BME280;61460;41.158;-73.238;2023-03-14T03:46:47;100314.12;;;22.79;39.36
73245;BME280;61460;41.158;-73.238;2023-03-14T03:49:18;100315.73;;;22.77;39.49
73245;BME280;61460;41.158;-73.238;2023-03-14T03:51:49;100307.43;;;22.77;39.45
73245;BME280;61460;41.158;-73.238;2023-03-14T03:54:19;100304.47;;;22.82;39.46
73245;BME280;61460;41.158;-73.238;2023-03-14T03:56:49;100302.54;;;22.72;39.69
73245;BME280;61460;41.158;-73.238;2023-03-14T03:59:20;100292.97;;;22.70;39.38
73245;BME280;61460;41.158;-73.238;2023-03-14T04:01:51;100278.42;;;22.66;39.20
73245;BME280;61460;41.158;-73.238;2023-03-14T04:04:21;100275.40;;;22.83;39.43
73245;BME280;61460;41.158;-73.238;2023-03-14T04:06:52;100272.57;;;22.83;38.96
73245;BME280;61460;41.158;-73.238;2023-03-14T04:09:22;100268.04;;;22.86;39.34
73245;BME280;61460;41.158;-73.238;2023-03-14T04:11:53;100264.37;;;22.82;39.31
73245;BME280;61460;41.158;-73.238;2023-03-14T04:14:23;100248.65;;;22.82;39.22
73245;BME280;61460;41.158;-73.238;2023-03-14T04:16:54;100247.23;;;22.84;39.11
73245;BME280;61460;41.158;-73.238;2023-03-14T04:19:25;100243.91;;;22.83;39.24
73245;BME280;61460;41.158;-73.238;2023-03-14T04:21:55;100231.85;;;22.78;39.11
73245;BME280;61460;41.158;-73.238;2023-03-14T04:24:25;100232.60;;;22.76;39.55
73245;BME280;61460;41.158;-73.238;2023-03-14T04:26:56;100232.48;;;22.75;40.09
73245;BME280;61460;41.158;-73.238;2023-03-14T04:29:26;100220.38;;;22.77;39.67
73245;BME280;61460;41.158;-73.238;2023-03-14T04:31:57;100217.93;;;22.80;39.79
73245;BME280;61460;41.158;-73.238;2023-03-14T04:34:27;100208.15;;;22.71;39.89
73245;BME280;61460;41.158;-73.238;2023-03-14T04:36:57;100206.80;;;22.67;40.04
73245;BME280;61460;41.158;-73.238;2023-03-14T04:39:28;100189.64;;;22.76;39.69
73245;BME280;61460;41.158;-73.238;2023-03-14T04:41:58;100175.29;;;22.59;39.68
73245;BME280;61460;41.158;-73.238;2023-03-14T04:44:28;100166.14;;;22.64;39.88
73245;BME280;61460;41.158;-73.238;2023-03-14T04:46:58;100161.70;;;22.65;40.00
73245;BME280;61460;41.158;-73.238;2023-03-14T04:49:29;100167.52;;;22.68;39.63
73245;BME280;61460;41.158;-73.238;2023-03-14T04:51:59;100159.85;;;22.78;39.54
73245;BME280;61460;41.158;-73.238;2023-03-14T04:54:30;100148.33;;;22.74;39.67
73245;BME280;61460;41.158;-73.238;2023-03-14T04:57:00;100128.51;;;22.74;39.72
73245;BME280;61460;41.158;-73.238;2023-03-14T04:59:30;100126.92;;;22.75;39.71
73245;BME280;61460;41.158;-73.238;2023-03-14T05:02:00;100126.53;;;22.83;39.53
73245;BME280;61460;41.158;-73.238;2023-03-14T05:04:31;100099.41;;;22.73;39.46
73245;BME280;61460;41.158;-73.238;2023-03-14T05:07:01;100087.76;;;22.86;39.57
73245;BME280;61460;41.158;-73.238;2023-03-14T05:09:32;100092.82;;;22.93;39.22
73245;BME280;61460;41.158;-73.238;2023-03-14T05:12:02;100088.82;;;22.77;39.55
73245;BME280;61460;41.158;-73.238;2023-03-14T05:14:32;100071.03;;;22.76;39.69
73245;BME280;61460;41.158;-73.238;2023-03-14T05:17:02;100066.59;;;22.80;39.56
73245;BME280;61460;41.158;-73.238;2023-03-14T05:19:33;100052.21;;;22.82;39.89
73245;BME280;61460;41.158;-73.238;2023-03-14T05:22:03;100041.06;;;22.80;39.82
73245;BME280;61460;41.158;-73.238;2023-03-14T05:24:34;100027.09;;;22.71;39.74
73245;BME280;61460;41.158;-73.238;2023-03-14T05:27:05;100042.09;;;22.59;40.65
73245;BME280;61460;41.158;-73.238;2023-03-14T05:29:35;100029.60;;;22.68;40.30
73245;BME280;61460;41.158;-73.238;2023-03-14T05:32:05;100021.62;;;22.72;40.26
73245;BME280;61460;41.158;-73.238;2023-03-14T05:34:35;100012.14;;;22.87;39.94
73245;BME280;61460;41.158;-73.238;2023-03-14T05:37:06;100005.61;;;23.02;39.57
73245;BME280;61460;41.158;-73.238;2023-03-14T05:39:36;100011.72;;;22.97;39.70
73245;BME280;61460;41.158;-73.238;2023-03-14T05:42:07;100001.21;;;23.01;39.56
73245;BME280;61460;41.158;-73.238;2023-03-14T05:44:37;99987.30;;;22.92;39.51
73245;BME280;61460;41.158;-73.238;2023-03-14T05:47:07;99973.54;;;22.73;39.77
73245;BME280;61460;41.158;-73.238;2023-03-14T05:49:38;99973.66;;;22.89;39.52
73245;BME280;61460;41.158;-73.238;2023-03-14T05:52:08;99967.55;;;22.96;39.51
73245;BME280;61460;41.158;-73.238;2023-03-14T05:54:39;99969.34;;;22.97;39.51
73245;BME280;61460;41.158;-73.238;2023-03-14T05:57:09;99965.95;;;23.05;39.44
73245;BME280;61460;41.158;-73.238;2023-03-14T05:59:39;99964.86;;;23.01;39.55
73245;BME280;61460;41.158;-73.238;2023-03-14T06:02:10;99962.89;;;23.01;39.51
73245;BME280;61460;41.158;-73.238;2023-03-14T06:04:41;99960.13;;;22.91;39.50
73245;BME280;61460;41.158;-73.238;2023-03-14T06:07:10;99962.66;;;23.01;39.48
73245;BME280;61460;41.158;-73.238;2023-03-14T06:09:40;99976.48;;;23.00;39.65
73245;BME280;61460;41.158;-73.238;2023-03-14T06:12:10;99995.99;;;22.98;39.37
73245;BME280;61460;41.158;-73.238;2023-03-14T06:14:41;99999.00;;;23.06;39.33
73245;BME280;61460;41.158;-73.238;2023-03-14T06:17:11;100009.07;;;23.03;39.35
73245;BME280;61460;41.158;-73.238;2023-03-14T06:19:41;100002.40;;;23.05;39.28
73245;BME280;61460;41.158;-73.238;2023-03-14T06:22:12;99993.51;;;23.01;39.34
73245;BME280;61460;41.158;-73.238;2023-03-14T06:24:43;99995.41;;;22.94;39.28
73245;BME280;61460;41.158;-73.238;2023-03-14T06:27:16;100000.42;;;23.01;39.44
73245;BME280;61460;41.158;-73.238;2023-03-14T06:29:44;100005.04;;;23.06;39.12
73245;BME280;61460;41.158;-73.238;2023-03-14T06:32:15;99980.23;;;23.18;38.91
73245;BME280;61460;41.158;-73.238;2023-03-14T06:34:45;99964.05;;;23.08;39.27
73245;BME280;61460;41.158;-73.238;2023-03-14T06:37:15;99974.57;;;23.15;39.12
73245;BME280;61460;41.158;-73.238;2023-03-14T06:39:45;99965.43;;;23.13;39.20
73245;BME280;61460;41.158;-73.238;2023-03-14T06:42:16;99958.30;;;23.04;39.50
73245;BME280;61460;41.158;-73.238;2023-03-14T06:44:46;99954.87;;;22.92;39.60
73245;BME280;61460;41.158;-73.238;2023-03-14T06:47:17;99968.25;;;22.90;39.79
73245;BME280;61460;41.158;-73.238;2023-03-14T06:49:47;99967.19;;;22.96;39.22
73245;BME280;61460;41.158;-73.238;2023-03-14T06:52:19;99955.01;;;23.13;39.01
73245;BME280;61460;41.158;-73.238;2023-03-14T06:54:49;99937.41;;;23.11;39.18
73245;BME280;61460;41.158;-73.238;2023-03-14T06:57:19;99933.79;;;23.11;39.11
73245;BME280;61460;41.158;-73.238;2023-03-14T06:59:50;99931.25;;;23.20;39.00
73245;BME280;61460;41.158;-73.238;2023-03-14T07:02:22;99932.39;;;22.97;39.15
73245;BME280;61460;41.158;-73.238;2023-03-14T07:04:51;99927.59;;;22.99;39.44
73245;BME280;61460;41.158;-73.238;2023-03-14T07:07:21;99927.98;;;23.01;39.21
73245;BME280;61460;41.158;-73.238;2023-03-14T07:09:52;99927.99;;;23.14;38.98
73245;BME280;61460;41.158;-73.238;2023-03-14T07:12:22;99919.84;;;23.05;39.22
73245;BME280;61460;41.158;-73.238;2023-03-14T07:14:53;99916.69;;;23.08;39.22
73245;BME280;61460;41.158;-73.238;2023-03-14T07:17:23;99908.64;;;22.99;39.39
73245;BME280;61460;41.158;-73.238;2023-03-14T07:19:54;99903.59;;;23.00;39.16
73245;BME280;61460;41.158;-73.238;2023-03-14T07:22:24;99900.82;;;22.82;39.37
73245;BME280;61460;41.158;-73.238;2023-03-14T07:24:54;99896.39;;;22.97;39.55
73245;BME280;61460;41.158;-73.238;2023-03-14T07:27:25;99890.35;;;23.06;39.32
73245;BME280;61460;41.158;-73.238;2023-03-14T07:29:55;99882.12;;;23.08;39.48
73245;BME280;61460;41.158;-73.238;2023-03-14T07:32:25;99878.49;;;22.99;39.37
73245;BME280;61460;41.158;-73.238;2023-03-14T07:34:56;99863.27;;;22.99;39.78
73245;BME280;61460;41.158;-73.238;2023-03-14T07:37:26;99858.86;;;22.86;39.86
73245;BME280;61460;41.158;-73.238;2023-03-14T07:39:56;99843.12;;;22.82;39.75
73245;BME280;61460;41.158;-73.238;2023-03-14T07:42:27;99843.88;;;22.85;39.51
73245;BME280;61460;41.158;-73.238;2023-03-14T07:44:57;99852.75;;;22.95;39.80
73245;BME280;61460;41.158;-73.238;2023-03-14T07:47:28;99841.58;;;22.87;39.70
73245;BME280;61460;41.158;-73.238;2023-03-14T07:49:58;99842.77;;;22.90;39.69
73245;BME280;61460;41.158;-73.238;2023-03-14T07:52:28;99834.16;;;22.91;39.80
73245;BME280;61460;41.158;-73.238;2023-03-14T07:54:59;99830.06;;;22.78;39.89
73245;BME280;61460;41.158;-73.238;2023-03-14T07:57:29;99814.08;;;22.85;39.74
73245;BME280;61460;41.158;-73.238;2023-03-14T07:59:59;99815.86;;;22.77;39.52
73245;BME280;61460;41.158;-73.238;2023-03-14T08:02:30;99804.39;;;22.85;39.32
73245;BME280;61460;41.158;-73.238;2023-03-14T08:05:00;99799.50;;;22.85;39.55
73245;BME280;61460;41.158;-73.238;2023-03-14T08:07:31;99791.45;;;22.78;39.70
73245;BME280;61460;41.158;-73.238;2023-03-14T08:10:02;99780.55;;;22.90;39.86
73245;BME280;61460;41.158;-73.238;2023-03-14T08:12:32;99771.30;;;22.88;39.76
73245;BME280;61460;41.158;-73.238;2023-03-14T08:15:04;99772.75;;;22.88;39.75
73245;BME280;61460;41.158;-73.238;2023-03-14T08:17:33;99766.94;;;22.71;39.72
73245;BME280;61460;41.158;-73.238;2023-03-14T08:20:05;99771.50;;;22.76;39.95
73245;BME280;61460;41.158;-73.238;2023-03-14T08:22:34;99763.53;;;22.78;39.58
73245;BME280;61460;41.158;-73.238;2023-03-14T08:25:05;99751.69;;;22.88;39.82
73245;BME280;61460;41.158;-73.238;2023-03-14T08:27:35;99746.95;;;22.76;39.80
73245;BME280;61460;41.158;-73.238;2023-03-14T08:30:09;99734.97;;;22.78;39.90
73245;BME280;61460;41.158;-73.238;2023-03-14T08:32:36;99731.46;;;22.70;40.06
73245;BME280;61460;41.158;-73.238;2023-03-14T08:35:08;99728.05;;;22.72;39.58
73245;BME280;61460;41.158;-73.238;2023-03-14T08:37:37;99720.30;;;22.71;39.66
73245;BME280;61460;41.158;-73.238;2023-03-14T08:40:09;99713.76;;;22.82;39.74
73245;BME280;61460;41.158;-73.238;2023-03-14T08:42:39;99712.86;;;22.75;40.09
73245;BME280;61460;41.158;-73.238;2023-03-14T08:45:10;99707.70;;;22.84;39.82
73245;BME280;61460;41.158;-73.238;2023-03-14T08:47:38;99709.52;;;22.92;39.68
73245;BME280;61460;41.158;-73.238;2023-03-14T08:50:10;99701.37;;;22.84;39.93
73245;BME280;61460;41.158;-73.238;2023-03-14T08:52:39;99708.54;;;22.70;39.78
73245;BME280;61460;41.158;-73.238;2023-03-14T08:55:10;99697.45;;;22.82;39.54
73245;BME280;61460;41.158;-73.238;2023-03-14T08:57:40;99695.47;;;22.89;39.82
73245;BME280;61460;41.158;-73.238;2023-03-14T09:00:12;99700.72;;;22.97;39.82
73245;BME280;61460;41.158;-73.238;2023-03-14T09:02:41;99702.47;;;22.91;39.93
73245;BME280;61460;41.158;-73.238;2023-03-14T09:05:11;99688.27;;;22.98;39.68
73245;BME280;61460;41.158;-73.238;2023-03-14T09:07:42;99693.56;;;22.95;39.68
73245;BME280;61460;41.158;-73.238;2023-03-14T09:10:12;99693.12;;;22.81;40.18
73245;BME280;61460;41.158;-73.238;2023-03-14T09:12:42;99688.77;;;22.88;40.25
73245;BME280;61460;41.158;-73.238;2023-03-14T09:15:12;99691.62;;;22.92;39.75
73245;BME280;61460;41.158;-73.238;2023-03-14T09:17:43;99696.57;;;22.96;40.16
73245;BME280;61460;41.158;-73.238;2023-03-14T09:20:13;99702.24;;;23.07;39.94
73245;BME280;61460;41.158;-73.238;2023-03-14T09:22:44;99708.06;;;23.09;39.70
73245;BME280;61460;41.158;-73.238;2023-03-14T09:25:15;99703.67;;;23.01;39.87
73245;BME280;61460;41.158;-73.238;2023-03-14T09:27:45;99704.46;;;22.87;39.83
73245;BME280;61460;41.158;-73.238;2023-03-14T09:30:15;99702.65;;;22.94;39.98
73245;BME280;61460;41.158;-73.238;2023-03-14T09:32:45;99699.90;;;22.94;39.93
73245;BME280;61460;41.158;-73.238;2023-03-14T09:35:16;99692.75;;;22.70;40.51
73245;BME280;61460;41.158;-73.238;2023-03-14T09:37:46;99701.36;;;22.75;40.00
73245;BME280;61460;41.158;-73.238;2023-03-14T09:40:18;99706.89;;;22.84;41.03
73245;BME280;61460;41.158;-73.238;2023-03-14T09:42:48;99704.78;;;22.93;40.09
73245;BME280;61460;41.158;-73.238;2023-03-14T09:45:22;99696.31;;;23.06;39.68
73245;BME280;61460;41.158;-73.238;2023-03-14T09:47:47;99710.03;;;22.99;40.03
73245;BME280;61460;41.158;-73.238;2023-03-14T09:50:18;99704.70;;;22.89;40.01
73245;BME280;61460;41.158;-73.238;2023-03-14T09:52:51;99710.64;;;22.89;40.24
73245;BME280;61460;41.158;-73.238;2023-03-14T09:55:21;99705.92;;;23.07;39.73
73245;BME280;61460;41.158;-73.238;2023-03-14T09:57:51;99702.23;;;23.08;39.72
73245;BME280;61460;41.158;-73.238;2023-03-14T10:00:21;99701.67;;;23.05;39.79
73245;BME280;61460;41.158;-73.238;2023-03-14T10:02:53;99703.35;;;23.00;39.92
73245;BME280;61460;41.158;-73.238;2023-03-14T10:05:23;99700.46;;;23.12;39.67
73245;BME280;61460;41.158;-73.238;2023-03-14T10:07:52;99702.89;;;23.03;39.87
73245;BME280;61460;41.158;-73.238;2023-03-14T10:10:24;99699.96;;;22.96;40.00
73245;BME280;61460;41.158;-73.238;2023-03-14T10:12:56;99705.56;;;22.97;40.00
73245;BME280;61460;41.158;-73.238;2023-03-14T10:15:25;99694.03;;;22.97;39.68
73245;BME280;61460;41.158;-73.238;2023-03-14T10:17:53;99690.99;;;22.93;39.42
73245;BME280;61460;41.158;-73.238;2023-03-14T10:20:29;99682.06;;;22.79;40.07
73245;BME280;61460;41.158;-73.238;2023-03-14T10:22:54;99676.58;;;22.86;39.97
73245;BME280;61460;41.158;-73.238;2023-03-14T10:25:27;99667.46;;;22.90;40.30
73245;BME280;61460;41.158;-73.238;2023-03-14T10:27:54;99671.50;;;22.94;39.83
73245;BME280;61460;41.158;-73.238;2023-03-14T10:30:38;99666.61;;;22.96;39.83
73245;BME280;61460;41.158;-73.238;2023-03-14T10:32:55;99665.04;;;22.95;39.78
73245;BME280;61460;41.158;-73.238;2023-03-14T10:35:26;99658.49;;;22.88;39.88
73245;BME280;61460;41.158;-73.238;2023-03-14T10:37:58;99656.50;;;22.86;39.92
73245;BME280;61460;41.158;-73.238;2023-03-14T10:40:30;99652.48;;;22.88;39.63
73245;BME280;61460;41.158;-73.238;2023-03-14T10:42:58;99653.19;;;22.82;39.55
73245;BME280;61460;41.158;-73.238;2023-03-14T10:45:32;99655.05;;;22.95;39.39
73245;BME280;61460;41.158;-73.238;2023-03-14T10:48:06;99658.05;;;22.84;39.87
73245;BME280;61460;41.158;-73.238;2023-03-14T10:50:30;99654.95;;;22.82;39.80
73245;BME280;61460;41.158;-73.238;2023-03-14T10:53:02;99655.55;;;22.74;39.96
73245;BME280;61460;41.158;-73.238;2023-03-14T10:57:59;99656.05;;;22.38;40.85
73245;BME280;61460;41.158;-73.238;2023-03-14T11:00:29;99651.49;;;22.59;40.10
73245;BME280;61460;41.158;-73.238;2023-03-14T11:03:08;99648.37;;;22.65;39.81
73245;BME280;61460;41.158;-73.238;2023-03-14T11:05:36;99647.51;;;22.76;39.83
73245;BME280;61460;41.158;-73.238;2023-03-14T11:08:07;99646.78;;;22.74;39.77
73245;BME280;61460;41.158;-73.238;2023-03-14T11:10:33;99643.19;;;22.83;39.69
73245;BME280;61460;41.158;-73.238;2023-03-14T11:13:09;99638.52;;;22.86;39.73
73245;BME280;61460;41.158;-73.238;2023-03-14T11:15:34;99640.54;;;22.83;39.85
73245;BME280;61460;41.158;-73.238;2023-03-14T11:20:37;99619.61;;;22.80;40.09
73245;BME280;61460;41.158;-73.238;2023-03-14T11:23:10;99616.25;;;22.67;40.12
73245;BME280;61460;41.158;-73.238;2023-03-14T11:25:38;99607.21;;;22.69;40.67
73245;BME280;61460;41.158;-73.238;2023-03-14T11:28:09;99616.20;;;22.85;39.92
73245;BME280;61460;41.158;-73.238;2023-03-14T11:30:38;99610.47;;;22.79;40.01
73245;BME280;61460;41.158;-73.238;2023-03-14T11:33:12;99608.00;;;22.88;39.95
73245;BME280;61460;41.158;-73.238;2023-03-14T11:35:40;99608.14;;;22.87;40.19
73245;BME280;61460;41.158;-73.238;2023-03-14T11:38:15;99603.28;;;22.70;40.71
73245;BME280;61460;41.158;-73.238;2023-03-14T11:40:38;99606.14;;;22.79;40.53
73245;BME280;61460;41.158;-73.238;2023-03-14T11:43:14;99604.97;;;22.67;40.66
73245;BME280;61460;41.158;-73.238;2023-03-14T11:45:41;99601.10;;;22.73;40.91
73245;BME280;61460;41.158;-73.238;2023-03-14T11:48:15;99607.29;;;22.75;40.70
73245;BME280;61460;41.158;-73.238;2023-03-14T11:50:41;99606.26;;;22.75;40.55
73245;BME280;61460;41.158;-73.238;2023-03-14T11:53:13;99606.37;;;22.83;41.01
73245;BME280;61460;41.158;-73.238;2023-03-14T11:55:41;99607.11;;;22.92;40.66
73245;BME280;61460;41.158;-73.238;2023-03-14T11:58:14;99601.75;;;23.10;40.52
73245;BME280;61460;41.158;-73.238;2023-03-14T12:00:41;99596.91;;;22.83;41.34
73245;BME280;61460;41.158;-73.238;2023-03-14T12:03:17;99601.86;;;22.88;41.43
73245;BME280;61460;41.158;-73.238;2023-03-14T12:05:46;99597.93;;;22.62;41.72
73245;BME280;61460;41.158;-73.238;2023-03-14T12:08:19;99594.18;;;22.75;41.20
73245;BME280;61460;41.158;-73.238;2023-03-14T12:10:44;99599.18;;;22.82;41.02
73245;BME280;61460;41.158;-73.238;2023-03-14T12:13:17;99602.58;;;22.94;40.67
73245;BME280;61460;41.158;-73.238;2023-03-14T12:15:49;99601.97;;;23.00;40.56
73245;BME280;61460;41.158;-73.238;2023-03-14T12:18:20;99592.21;;;23.06;40.39
73245;BME280;61460;41.158;-73.238;2023-03-14T12:20:53;99600.66;;;23.01;40.34
73245;BME280;61460;41.158;-73.238;2023-03-14T12:23:14;99595.68;;;22.99;40.35
73245;BME280;61460;41.158;-73.238;2023-03-14T12:25:44;99596.37;;;22.98;40.21
73245;BME280;61460;41.158;-73.238;2023-03-14T12:28:20;99592.45;;;22.98;40.07
73245;BME280;61460;41.158;-73.238;2023-03-14T12:30:45;99586.04;;;22.45;41.05
73245;BME280;61460;41.158;-73.238;2023-03-14T12:33:27;99580.07;;;22.58;40.74
73245;BME280;61460;41.158;-73.238;2023-03-14T12:35:48;99584.79;;;22.57;40.60
73245;BME280;61460;41.158;-73.238;2023-03-14T12:38:24;99586.70;;;22.77;40.31
73245;BME280;61460;41.158;-73.238;2023-03-14T12:40:54;99575.47;;;22.85;40.15
73245;BME280;61460;41.158;-73.238;2023-03-14T12:43:25;99584.78;;;22.88;40.11
73245;BME280;61460;41.158;-73.238;2023-03-14T12:48:22;99585.78;;;22.88;39.90
73245;BME280;61460;41.158;-73.238;2023-03-14T12:50:55;99584.09;;;22.88;39.92
73245;BME280;61460;41.158;-73.238;2023-03-14T12:55:56;99575.07;;;22.58;40.24
73245;BME280;61460;41.158;-73.238;2023-03-14T12:58:27;99572.08;;;22.59;40.18
73245;BME280;61460;41.158;-73.238;2023-03-14T13:00:55;99570.76;;;22.67;40.15